Time;durP1;ratioP1;P1;durP2;ratioP2;P2;SDS_P1;SDS_P2;PMS_P1;PMS_P2;Temp;Humidity;BMP_temperature;BMP_pressure;BME280_temperature;BME280_humidity;BME280_pressure;Samples;Min_cycle;Max_cycle;Signal;HPM_P1;HPM_P2
2023/06/25 00:00:53;;;;;;;11.77;8.60;;;;;;;;;;5084508;28;20334;-69
2023/06/25 00:03:18;;;;;;;12.90;8.07;;;;;;;;;;5081423;28;20196;-69
2023/06/25 00:05:44;;;;;;;10.13;8.23;;;;;;;;;;5087040;28;20319;-68
2023/06/25 00:08:09;;;;;;;10.30;8.75;;;;;;;;;;5088185;28;20196;-69
2023/06/25 00:10:35;;;;;;;8.73;7.72;;;;;;;;;;5071235;28;20211;-69
2023/06/25 00:13:00;;;;;;;11.60;8.50;;;;;;;;;;5090070;28;20291;-69
2023/06/25 00:15:27;;;;;;;11.57;8.25;;;;;;;;;;5076363;28;20188;-73
2023/06/25 00:17:53;;;;;;;10.45;8.75;;;;;;;;;;5075315;28;20196;-69
2023/06/25 00:20:18;;;;;;;10.80;8.55;;;;;;;;;;5078125;28;20184;-69
2023/06/25 00:22:44;;;;;;;10.55;8.43;;;;;;;;;;5078537;28;20583;-69
2023/06/25 00:25:10;;;;;;;12.05;8.80;;;;;;;;;;5078687;28;20184;-69
2023/06/25 00:27:35;;;;;;;10.85;8.75;;;;;;;;;;5075847;28;20246;-69
2023/06/25 00:30:01;;;;;;;12.57;9.50;;;;;;;;;;5069806;28;20271;-68
2023/06/25 00:32:27;;;;;;;12.25;9.38;;;;;;;;;;5079031;28;20208;-68
2023/06/25 00:34:57;;;;;;;11.60;9.75;;;;;;;;;;5075979;28;20611;-68
2023/06/25 00:37:23;;;;;;;11.80;9.40;;;;;;;;;;5083718;28;20787;-68
2023/06/25 00:39:48;;;;;;;12.25;9.98;;;;;;;;;;5071261;28;20236;-68
2023/06/25 00:42:15;;;;;;;12.65;10.20;;;;;;;;;;5083529;28;20631;-68
2023/06/25 00:44:40;;;;;;;11.98;10.30;;;;;;;;;;5085352;28;20196;-68
2023/06/25 00:47:15;;;;;;;13.75;10.80;;;;;;;;;;5076200;28;20282;-69
2023/06/25 00:49:41;;;;;;;13.35;10.35;;;;;;;;;;5082427;28;20673;-69
2023/06/25 00:52:09;;;;;;;12.00;10.02;;;;;;;;;;5083584;28;20196;-69
2023/06/25 00:54:39;;;;;;;12.60;10.23;;;;;;;;;;5073389;28;20195;-69
2023/06/25 00:57:08;;;;;;;15.02;11.35;;;;;;;;;;5071733;28;20197;-69
2023/06/25 00:59:44;;;;;;;13.15;10.57;;;;;;;;;;5084026;28;20227;-69
2023/06/25 01:02:44;;;;;;;13.88;10.52;;;;;;;;;;5088124;28;20590;-69
2023/06/25 01:05:19;;;;;;;13.63;10.77;;;;;;;;;;5081426;28;20383;-69
2023/06/25 01:07:45;;;;;;;16.30;11.10;;;;;;;;;;5073059;28;20187;-69
2023/06/25 01:10:12;;;;;;;13.55;10.75;;;;;;;;;;5073181;28;20188;-69
2023/06/25 01:12:38;;;;;;;12.88;10.95;;;;;;;;;;5087043;28;20243;-69
2023/06/25 01:15:04;;;;;;;12.52;10.48;;;;;;;;;;5076841;28;20216;-69
2023/06/25 01:17:30;;;;;;;12.95;10.80;;;;;;;;;;5081390;28;20670;-69
2023/06/25 01:19:55;;;;;;;15.23;11.32;;;;;;;;;;5081726;28;20275;-69
2023/06/25 01:22:29;;;;;;;14.88;10.88;;;;;;;;;;5084801;28;20632;-69
2023/06/25 01:24:55;;;;;;;13.32;11.10;;;;;;;;;;5074832;28;20376;-69
2023/06/25 01:27:21;;;;;;;14.25;11.80;;;;;;;;;;5081202;28;20643;-69
2023/06/25 01:29:48;;;;;;;15.75;12.07;;;;;;;;;;5076643;28;20692;-69
2023/06/25 01:32:14;;;;;;;15.32;10.75;;;;;;;;;;5077266;28;20666;-69
2023/06/25 01:34:39;;;;;;;15.30;12.60;;;;;;;;;;5078146;28;20195;-69
2023/06/25 01:37:06;;;;;;;20.35;13.95;;;;;;;;;;5071370;28;20243;-69
2023/06/25 01:39:32;;;;;;;16.90;13.10;;;;;;;;;;5076570;28;20640;-69
2023/06/25 01:41:57;;;;;;;19.02;14.18;;;;;;;;;;5078431;28;20180;-69
2023/06/25 01:44:28;;;;;;;19.55;14.55;;;;;;;;;;5075780;28;20211;-69
2023/06/25 01:46:54;;;;;;;18.25;13.40;;;;;;;;;;5082431;28;20325;-69
2023/06/25 01:49:19;;;;;;;19.05;14.00;;;;;;;;;;5087534;28;20686;-69
2023/06/25 01:51:44;;;;;;;20.55;13.95;;;;;;;;;;5082150;28;20732;-69
2023/06/25 01:54:10;;;;;;;18.52;14.60;;;;;;;;;;5082711;28;20196;-69
2023/06/25 01:56:35;;;;;;;18.10;14.05;;;;;;;;;;5075242;28;20639;-69
2023/06/25 01:59:01;;;;;;;21.10;14.70;;;;;;;;;;5083062;28;20196;-69
2023/06/25 02:01:26;;;;;;;17.95;14.60;;;;;;;;;;5079724;28;20284;-69
2023/06/25 02:03:52;;;;;;;20.80;16.02;;;;;;;;;;5082928;28;20189;-69
2023/06/25 02:06:17;;;;;;;21.15;16.50;;;;;;;;;;5087954;28;20711;-69
2023/06/25 02:08:43;;;;;;;20.20;16.58;;;;;;;;;;5080314;28;20215;-69
2023/06/25 02:11:08;;;;;;;21.67;17.15;;;;;;;;;;5076716;28;20553;-69
2023/06/25 02:13:34;;;;;;;23.25;15.95;;;;;;;;;;5086466;28;20187;-69
2023/06/25 02:16:00;;;;;;;23.52;16.00;;;;;;;;;;5075255;28;20192;-69
2023/06/25 02:18:25;;;;;;;21.65;16.58;;;;;;;;;;5078542;28;20235;-69
2023/06/25 02:20:50;;;;;;;19.73;16.80;;;;;;;;;;5088050;28;20212;-70
2023/06/25 02:23:16;;;;;;;25.65;17.55;;;;;;;;;;5079649;28;20177;-69
2023/06/25 02:25:41;;;;;;;24.67;17.67;;;;;;;;;;5071739;28;20200;-69
2023/06/25 02:28:07;;;;;;;25.17;17.45;;;;;;;;;;5069912;28;20193;-69
2023/06/25 02:30:32;;;;;;;25.42;19.13;;;;;;;;;;5073430;28;20536;-69
2023/06/25 02:32:57;;;;;;;25.85;18.95;;;;;;;;;;5068038;28;20315;-68
2023/06/25 02:35:23;;;;;;;22.20;16.80;;;;;;;;;;5083215;28;20706;-68
2023/06/25 02:37:48;;;;;;;24.42;17.58;;;;;;;;;;5075591;28;20202;-68
2023/06/25 02:40:14;;;;;;;27.60;18.73;;;;;;;;;;5085531;28;20742;-68
2023/06/25 02:42:39;;;;;;;28.98;20.08;;;;;;;;;;5080784;28;20184;-68
2023/06/25 02:45:05;;;;;;;29.77;21.98;;;;;;;;;;5070662;28;20220;-68
2023/06/25 02:47:30;;;;;;;27.08;20.58;;;;;;;;;;5077173;28;20608;-68
2023/06/25 02:49:56;;;;;;;30.10;21.42;;;;;;;;;;5082808;28;20283;-68
2023/06/25 02:52:21;;;;;;;33.25;23.25;;;;;;;;;;5087625;28;20518;-68
2023/06/25 02:54:46;;;;;;;34.17;21.42;;;;;;;;;;5081503;28;20492;-68
2023/06/25 02:57:12;;;;;;;30.73;21.85;;;;;;;;;;5081634;28;20185;-68
2023/06/25 02:59:38;;;;;;;29.45;20.83;;;;;;;;;;5080392;28;20227;-68
2023/06/25 03:02:03;;;;;;;29.73;21.80;;;;;;;;;;5082714;28;20200;-69
2023/06/25 03:04:29;;;;;;;31.30;21.52;;;;;;;;;;5084995;28;20196;-69
2023/06/25 03:06:54;;;;;;;31.15;21.35;;;;;;;;;;5077250;28;20201;-68
2023/06/25 03:09:19;;;;;;;32.58;21.75;;;;;;;;;;5068137;28;20205;-68
2023/06/25 03:11:45;;;;;;;28.38;21.85;;;;;;;;;;5082425;28;20212;-69
2023/06/25 03:14:10;;;;;;;31.60;21.92;;;;;;;;;;5073830;28;20275;-68
2023/06/25 03:16:36;;;;;;;30.92;23.63;;;;;;;;;;5088031;28;20208;-68
2023/06/25 03:19:01;;;;;;;30.35;22.42;;;;;;;;;;5081474;28;20227;-68
2023/06/25 03:21:27;;;;;;;31.55;22.35;;;;;;;;;;5086717;28;20666;-68
2023/06/25 03:23:52;;;;;;;35.72;24.23;;;;;;;;;;5080820;28;20771;-68
2023/06/25 03:26:18;;;;;;;35.22;24.27;;;;;;;;;;5090098;28;20219;-68
2023/06/25 03:28:43;;;;;;;36.00;25.30;;;;;;;;;;5089254;28;20207;-68
2023/06/25 03:31:09;;;;;;;32.33;24.08;;;;;;;;;;5077301;28;20211;-68
2023/06/25 03:33:34;;;;;;;35.55;24.55;;;;;;;;;;5081196;28;20183;-68
2023/06/25 03:35:59;;;;;;;36.88;24.98;;;;;;;;;;5085572;28;20191;-68
2023/06/25 03:38:25;;;;;;;37.72;24.33;;;;;;;;;;5090017;28;20285;-68
2023/06/25 03:40:50;;;;;;;35.83;25.55;;;;;;;;;;5084428;28;20372;-68
2023/06/25 03:43:16;;;;;;;37.33;25.13;;;;;;;;;;5083878;28;20192;-68
2023/06/25 03:45:41;;;;;;;36.50;26.23;;;;;;;;;;5083132;28;20205;-68
2023/06/25 03:48:06;;;;;;;41.88;26.40;;;;;;;;;;5082558;28;20200;-68
2023/06/25 03:50:32;;;;;;;37.28;25.92;;;;;;;;;;5085816;28;20188;-68
2023/06/25 03:52:57;;;;;;;35.47;25.27;;;;;;;;;;5078194;28;20701;-68
2023/06/25 03:55:22;;;;;;;39.53;25.38;;;;;;;;;;5079211;28;20189;-68
2023/06/25 03:57:50;;;;;;;34.63;25.88;;;;;;;;;;5086230;28;20191;-68
2023/06/25 04:00:15;;;;;;;37.10;25.10;;;;;;;;;;5080321;28;20188;-68
2023/06/25 04:02:41;;;;;;;35.58;25.05;;;;;;;;;;5081812;28;20210;-67
2023/06/25 04:05:06;;;;;;;36.30;25.30;;;;;;;;;;5086256;28;20180;-68
2023/06/25 04:07:32;;;;;;;34.28;24.88;;;;;;;;;;5071333;28;20204;-68
2023/06/25 04:09:57;;;;;;;37.60;25.25;;;;;;;;;;5074878;28;20238;-68
2023/06/25 04:12:22;;;;;;;39.08;25.20;;;;;;;;;;5072293;28;20283;-68
2023/06/25 04:14:48;;;;;;;34.97;25.88;;;;;;;;;;5078687;28;20192;-68
2023/06/25 04:17:13;;;;;;;33.33;24.10;;;;;;;;;;5076035;28;20188;-68
2023/06/25 04:19:38;;;;;;;35.50;24.48;;;;;;;;;;5085826;28;20647;-68
2023/06/25 04:22:04;;;;;;;33.58;25.63;;;;;;;;;;5077789;28;20184;-68
2023/06/25 04:24:30;;;;;;;35.50;25.10;;;;;;;;;;5075350;28;20192;-69
2023/06/25 04:26:56;;;;;;;33.70;24.70;;;;;;;;;;5084655;28;20538;-69
2023/06/25 04:29:21;;;;;;;32.30;22.92;;;;;;;;;;5088593;28;20279;-69
2023/06/25 04:31:47;;;;;;;34.78;23.55;;;;;;;;;;5076322;28;20257;-69
2023/06/25 04:34:12;;;;;;;29.70;22.52;;;;;;;;;;5082617;28;20682;-70
2023/06/25 04:36:37;;;;;;;31.00;22.27;;;;;;;;;;5087296;28;20702;-69
2023/06/25 04:39:03;;;;;;;30.38;21.35;;;;;;;;;;5085086;28;20203;-69
2023/06/25 04:41:28;;;;;;;26.60;20.20;;;;;;;;;;5079779;28;20307;-68
2023/06/25 04:43:54;;;;;;;26.13;20.27;;;;;;;;;;5076442;28;20299;-69
2023/06/25 04:46:19;;;;;;;28.48;19.67;;;;;;;;;;5083221;28;20233;-69
2023/06/25 04:48:46;;;;;;;26.90;20.10;;;;;;;;;;5090315;28;20270;-69
2023/06/25 04:51:12;;;;;;;23.50;19.15;;;;;;;;;;5085799;28;20189;-69
2023/06/25 04:53:37;;;;;;;23.88;19.73;;;;;;;;;;5083907;28;20291;-69
2023/06/25 04:56:03;;;;;;;25.13;18.88;;;;;;;;;;5080183;28;20279;-69
2023/06/25 04:58:28;;;;;;;26.23;18.55;;;;;;;;;;5069454;28;20203;-69
2023/06/25 05:00:53;;;;;;;25.55;19.88;;;;;;;;;;5070606;28;20216;-69
2023/06/25 05:03:19;;;;;;;27.42;20.45;;;;;;;;;;5074256;28;20280;-70
2023/06/25 05:05:44;;;;;;;24.77;19.92;;;;;;;;;;5076653;28;20196;-69
2023/06/25 05:08:10;;;;;;;25.38;19.95;;;;;;;;;;5076670;28;20185;-69
2023/06/25 05:10:35;;;;;;;23.23;20.17;;;;;;;;;;5082381;28;20189;-69
2023/06/25 05:13:02;;;;;;;24.88;21.15;;;;;;;;;;5087657;28;20200;-69
2023/06/25 05:15:28;;;;;;;28.23;21.13;;;;;;;;;;5081113;28;20594;-69
2023/06/25 05:17:53;;;;;;;24.58;20.63;;;;;;;;;;5078799;28;20345;-69
2023/06/25 05:20:18;;;;;;;32.55;22.10;;;;;;;;;;5081082;28;20211;-69
2023/06/25 05:22:44;;;;;;;27.73;22.33;;;;;;;;;;5075059;28;20201;-69
2023/06/25 05:25:09;;;;;;;27.33;22.48;;;;;;;;;;5088101;28;20526;-69
2023/06/25 05:27:34;;;;;;;27.90;22.60;;;;;;;;;;5075026;28;20195;-69
2023/06/25 05:30:00;;;;;;;27.73;23.15;;;;;;;;;;5081088;28;20192;-69
2023/06/25 05:32:25;;;;;;;28.58;22.90;;;;;;;;;;5081641;28;20594;-69
2023/06/25 05:34:50;;;;;;;30.08;24.30;;;;;;;;;;5077832;28;20207;-69
2023/06/25 05:37:16;;;;;;;30.38;23.70;;;;;;;;;;5078656;28;20237;-69
2023/06/25 05:39:41;;;;;;;29.40;24.90;;;;;;;;;;5087204;28;20737;-69
2023/06/25 05:42:07;;;;;;;30.00;23.55;;;;;;;;;;5073362;28;20507;-70
2023/06/25 05:44:32;;;;;;;26.48;23.17;;;;;;;;;;5078464;28;20191;-69
2023/06/25 05:46:57;;;;;;;30.45;24.25;;;;;;;;;;5084729;28;20188;-69
2023/06/25 05:49:23;;;;;;;21.98;19.63;;;;;;;;;;5086662;28;20786;-69
2023/06/25 05:51:48;;;;;;;27.85;24.75;;;;;;;;;;5081967;28;20240;-69
2023/06/25 05:54:14;;;;;;;27.98;23.65;;;;;;;;;;5076001;28;20718;-70
2023/06/25 05:56:39;;;;;;;30.05;23.95;;;;;;;;;;5085218;28;20192;-69
2023/06/25 05:59:05;;;;;;;30.05;25.00;;;;;;;;;;5086235;28;20684;-70
2023/06/25 06:01:30;;;;;;;26.52;23.63;;;;;;;;;;5087227;28;20207;-70
2023/06/25 06:03:56;;;;;;;26.75;23.85;;;;;;;;;;5081426;28;20651;-69
2023/06/25 06:06:23;;;;;;;30.73;23.20;;;;;;;;;;5077560;28;20409;-69
2023/06/25 06:08:49;;;;;;;26.58;23.40;;;;;;;;;;5081947;28;20181;-69
2023/06/25 06:11:14;;;;;;;28.00;23.30;;;;;;;;;;5081872;28;20738;-69
2023/06/25 06:13:40;;;;;;;27.52;23.50;;;;;;;;;;5081828;28;20271;-69
2023/06/25 06:16:05;;;;;;;28.13;23.17;;;;;;;;;;5079951;28;20192;-69
2023/06/25 06:18:30;;;;;;;28.23;23.95;;;;;;;;;;5077009;28;20656;-69
2023/06/25 06:20:56;;;;;;;29.92;24.23;;;;;;;;;;5081250;28;20188;-69
2023/06/25 06:23:21;;;;;;;28.58;24.17;;;;;;;;;;5078393;28;20647;-69
2023/06/25 06:25:46;;;;;;;26.80;22.95;;;;;;;;;;5078079;28;20547;-69
2023/06/25 06:28:12;;;;;;;26.67;23.88;;;;;;;;;;5087849;28;20200;-68
2023/06/25 06:30:37;;;;;;;25.73;22.88;;;;;;;;;;5078034;28;20286;-69
2023/06/25 06:33:03;;;;;;;25.27;22.58;;;;;;;;;;5070617;28;20210;-69
2023/06/25 06:35:28;;;;;;;24.98;21.88;;;;;;;;;;5078858;28;20287;-70
2023/06/25 06:37:53;;;;;;;24.13;21.63;;;;;;;;;;5086468;28;20195;-69
2023/06/25 06:40:19;;;;;;;24.42;21.55;;;;;;;;;;5086940;28;20363;-69
2023/06/25 06:42:44;;;;;;;23.48;21.05;;;;;;;;;;5079971;28;20188;-69
2023/06/25 06:45:10;;;;;;;23.35;20.85;;;;;;;;;;5080451;28;20359;-69
2023/06/25 06:47:35;;;;;;;23.33;20.83;;;;;;;;;;5081085;28;20510;-69
2023/06/25 06:50:01;;;;;;;24.45;20.75;;;;;;;;;;5081855;28;20188;-69
2023/06/25 06:52:27;;;;;;;26.42;22.17;;;;;;;;;;5072995;28;20251;-69
2023/06/25 06:54:52;;;;;;;24.58;20.88;;;;;;;;;;5081822;28;20183;-70
2023/06/25 06:57:17;;;;;;;24.25;19.73;;;;;;;;;;5069692;28;20263;-69
2023/06/25 06:59:46;;;;;;;22.58;18.88;;;;;;;;;;5079579;28;20558;-69
2023/06/25 07:02:11;;;;;;;21.08;18.50;;;;;;;;;;5071404;28;20215;-69
2023/06/25 07:04:38;;;;;;;23.40;18.63;;;;;;;;;;5078673;28;20221;-69
2023/06/25 07:07:04;;;;;;;20.98;18.08;;;;;;;;;;5081126;28;20188;-69
2023/06/25 07:09:29;;;;;;;17.40;15.60;;;;;;;;;;5063443;28;20246;-70
2023/06/25 07:11:55;;;;;;;20.23;17.63;;;;;;;;;;5073454;28;20554;-70
2023/06/25 07:14:20;;;;;;;20.88;18.00;;;;;;;;;;5082938;28;20198;-68
2023/06/25 07:16:46;;;;;;;18.38;15.57;;;;;;;;;;5072744;28;20275;-69
2023/06/25 07:19:11;;;;;;;18.45;16.55;;;;;;;;;;5079414;28;20525;-69
2023/06/25 07:21:37;;;;;;;19.02;17.00;;;;;;;;;;5078854;28;20712;-69
2023/06/25 07:24:03;;;;;;;17.85;15.13;;;;;;;;;;5078946;28;20184;-69
2023/06/25 07:26:28;;;;;;;17.20;15.40;;;;;;;;;;5079152;28;20230;-69
2023/06/25 07:28:53;;;;;;;19.05;15.15;;;;;;;;;;5073468;28;20200;-69
2023/06/25 07:31:19;;;;;;;17.77;15.20;;;;;;;;;;5082130;28;20223;-69
2023/06/25 07:33:44;;;;;;;16.70;14.98;;;;;;;;;;5074101;28;20295;-69
2023/06/25 07:36:10;;;;;;;17.92;15.90;;;;;;;;;;5079148;28;20204;-68
2023/06/25 07:38:35;;;;;;;18.33;15.38;;;;;;;;;;5076737;28;20569;-69
2023/06/25 07:41:01;;;;;;;17.63;15.25;;;;;;;;;;5068303;28;20231;-69
2023/06/25 07:43:26;;;;;;;14.52;12.95;;;;;;;;;;5067388;28;20550;-69
2023/06/25 07:45:52;;;;;;;16.38;14.32;;;;;;;;;;5080683;28;20272;-71
2023/06/25 07:48:17;;;;;;;17.42;13.93;;;;;;;;;;5079018;28;20206;-70
2023/06/25 07:50:42;;;;;;;15.23;13.23;;;;;;;;;;5079318;28;20196;-70
2023/06/25 07:53:08;;;;;;;14.90;12.55;;;;;;;;;;5075656;28;20213;-69
2023/06/25 07:55:45;;;;;;;14.50;13.00;;;;;;;;;;5072299;28;20197;-70
2023/06/25 07:58:10;;;;;;;16.75;12.15;;;;;;;;;;5081228;28;20205;-70
2023/06/25 08:00:36;;;;;;;14.00;12.50;;;;;;;;;;5083013;28;20208;-69
2023/06/25 08:03:01;;;;;;;15.02;12.43;;;;;;;;;;5080660;28;20626;-68
2023/06/25 08:05:27;;;;;;;12.88;11.50;;;;;;;;;;5086599;28;20219;-68
2023/06/25 08:07:52;;;;;;;13.32;12.00;;;;;;;;;;5073788;28;20250;-69
2023/06/25 08:10:18;;;;;;;13.93;12.10;;;;;;;;;;5070704;28;20231;-69
2023/06/25 08:12:43;;;;;;;15.82;11.18;;;;;;;;;;5082677;28;20591;-69
2023/06/25 08:15:09;;;;;;;14.20;12.65;;;;;;;;;;5082711;28;20243;-68
2023/06/25 08:17:34;;;;;;;13.10;11.55;;;;;;;;;;5087083;28;20192;-69
2023/06/25 08:20:00;;;;;;;14.93;11.35;;;;;;;;;;5083524;28;20640;-69
2023/06/25 08:22:25;;;;;;;14.68;12.95;;;;;;;;;;5076442;28;20193;-70
2023/06/25 08:24:50;;;;;;;12.20;11.00;;;;;;;;;;5080264;28;20199;-69
2023/06/25 08:27:16;;;;;;;11.75;10.40;;;;;;;;;;5079021;28;20192;-69
2023/06/25 08:29:41;;;;;;;14.95;10.63;;;;;;;;;;5071975;28;20282;-69
2023/06/25 08:32:07;;;;;;;12.55;11.20;;;;;;;;;;5083398;28;20521;-69
2023/06/25 08:34:32;;;;;;;12.20;10.82;;;;;;;;;;5073370;28;20201;-69
2023/06/25 08:36:58;;;;;;;11.45;10.07;;;;;;;;;;5079336;28;20181;-69
2023/06/25 08:39:23;;;;;;;11.48;10.35;;;;;;;;;;5079846;28;20186;-69
2023/06/25 08:41:49;;;;;;;11.90;10.02;;;;;;;;;;5073940;28;20279;-69
2023/06/25 08:44:15;;;;;;;11.40;9.35;;;;;;;;;;5074055;28;20207;-69
2023/06/25 08:46:49;;;;;;;12.10;9.88;;;;;;;;;;5077818;28;20271;-70
2023/06/25 08:49:16;;;;;;;11.00;9.82;;;;;;;;;;5084386;28;20514;-69
2023/06/25 08:51:41;;;;;;;11.23;10.02;;;;;;;;;;5078231;28;20634;-69
2023/06/25 08:54:07;;;;;;;11.13;9.95;;;;;;;;;;5069484;28;20268;-69
2023/06/25 08:56:33;;;;;;;11.93;10.00;;;;;;;;;;5083761;28;20329;-69
2023/06/25 08:58:58;;;;;;;12.85;10.73;;;;;;;;;;5077131;28;20222;-68
2023/06/25 09:01:24;;;;;;;12.23;9.82;;;;;;;;;;5073522;28;20200;-69
2023/06/25 09:03:50;;;;;;;11.45;9.35;;;;;;;;;;5077746;28;20257;-69
2023/06/25 09:06:16;;;;;;;14.52;9.68;;;;;;;;;;5078227;28;20195;-69
2023/06/25 09:08:42;;;;;;;10.77;7.82;;;;;;;;;;5063995;28;20181;-69
2023/06/25 09:11:08;;;;;;;9.75;8.13;;;;;;;;;;5084951;28;20774;-69
2023/06/25 09:13:34;;;;;;;10.63;9.02;;;;;;;;;;5078506;28;20290;-69
2023/06/25 09:16:05;;;;;;;12.82;8.63;;;;;;;;;;5080231;28;20275;-70
2023/06/25 09:18:31;;;;;;;7.32;6.40;;;;;;;;;;5088202;28;20192;-69
2023/06/25 09:21:01;;;;;;;7.28;6.05;;;;;;;;;;5075213;28;20733;-69
2023/06/25 09:23:26;;;;;;;7.78;5.70;;;;;;;;;;5069916;28;20606;-70
2023/06/25 09:25:52;;;;;;;7.00;5.45;;;;;;;;;;5075016;28;20184;-70
2023/06/25 09:28:19;;;;;;;8.30;5.93;;;;;;;;;;5073357;28;20614;-71
2023/06/25 09:30:44;;;;;;;6.70;6.00;;;;;;;;;;5077694;28;20192;-71
2023/06/25 09:33:11;;;;;;;7.85;5.88;;;;;;;;;;5078374;28;20214;-70
2023/06/25 09:35:36;;;;;;;7.47;4.70;;;;;;;;;;5074157;28;20249;-70
2023/06/25 09:38:02;;;;;;;6.43;4.80;;;;;;;;;;5073517;28;20192;-70
2023/06/25 09:40:28;;;;;;;6.68;5.57;;;;;;;;;;5083869;28;20220;-70
2023/06/25 09:42:55;;;;;;;7.25;6.32;;;;;;;;;;5075776;28;20185;-70
2023/06/25 09:45:22;;;;;;;6.00;5.40;;;;;;;;;;5074096;28;20199;-71
2023/06/25 09:47:50;;;;;;;7.20;5.30;;;;;;;;;;5072703;28;20185;-70
2023/06/25 09:50:21;;;;;;;6.63;4.68;;;;;;;;;;5073972;28;20192;-71
2023/06/25 09:52:57;;;;;;;6.30;4.40;;;;;;;;;;5081687;28;20219;-70
2023/06/25 09:55:25;;;;;;;5.32;4.60;;;;;;;;;;5070988;28;20340;-71
2023/06/25 09:57:53;;;;;;;6.20;4.53;;;;;;;;;;5071019;28;20609;-71
2023/06/25 10:00:22;;;;;;;5.72;5.13;;;;;;;;;;5076299;28;20654;-71
2023/06/25 10:02:49;;;;;;;5.25;4.53;;;;;;;;;;5082016;28;20186;-71
2023/06/25 10:05:14;;;;;;;5.18;4.63;;;;;;;;;;5075900;28;20200;-70
2023/06/25 10:07:40;;;;;;;5.70;4.95;;;;;;;;;;5082821;28;20192;-72
2023/06/25 10:10:07;;;;;;;5.63;5.13;;;;;;;;;;5073034;28;20257;-69
2023/06/25 10:12:35;;;;;;;5.90;4.65;;;;;;;;;;5071992;28;20637;-71
2023/06/25 10:15:02;;;;;;;13.60;4.75;;;;;;;;;;5074759;28;20204;-71
2023/06/25 10:17:29;;;;;;;5.63;4.72;;;;;;;;;;5075196;28;20204;-72
2023/06/25 10:20:00;;;;;;;7.13;5.07;;;;;;;;;;5074492;28;20562;-72
2023/06/25 10:22:27;;;;;;;8.73;4.90;;;;;;;;;;5079128;28;20227;-71
2023/06/25 10:24:54;;;;;;;6.13;5.38;;;;;;;;;;5067508;28;20333;-70
2023/06/25 10:27:22;;;;;;;6.90;5.03;;;;;;;;;;5078103;28;20192;-71
2023/06/25 10:29:48;;;;;;;5.35;4.68;;;;;;;;;;5086253;28;20313;-71
2023/06/25 10:32:13;;;;;;;5.95;5.13;;;;;;;;;;5072075;28;20700;-71
2023/06/25 10:34:40;;;;;;;7.50;5.03;;;;;;;;;;5084590;28;20205;-71
2023/06/25 10:37:06;;;;;;;6.43;5.32;;;;;;;;;;5072264;28;20180;-70
2023/06/25 10:39:39;;;;;;;5.72;5.13;;;;;;;;;;5068563;28;20592;-70
2023/06/25 10:42:05;;;;;;;5.95;5.13;;;;;;;;;;5077386;28;20222;-72
2023/06/25 10:44:31;;;;;;;6.72;4.88;;;;;;;;;;5066431;28;20207;-70
2023/06/25 10:47:10;;;;;;;6.15;5.55;;;;;;;;;;5085185;28;20694;-71
2023/06/25 10:49:36;;;;;;;6.30;5.00;;;;;;;;;;5080206;28;20697;-72
2023/06/25 10:52:03;;;;;;;7.22;5.10;;;;;;;;;;5080220;28;20218;-71
2023/06/25 10:54:30;;;;;;;6.47;5.75;;;;;;;;;;5078599;28;20192;-70
2023/06/25 10:57:07;;;;;;;7.82;5.53;;;;;;;;;;5070816;28;20226;-71
2023/06/25 10:59:33;;;;;;;6.85;5.22;;;;;;;;;;5073971;28;20188;-71
2023/06/25 11:02:16;;;;;;;9.48;5.47;;;;;;;;;;5072411;28;20204;-72
2023/06/25 11:04:49;;;;;;;6.25;5.60;;;;;;;;;;5078566;28;20203;-71
2023/06/25 11:07:14;;;;;;;7.55;5.07;;;;;;;;;;5069080;28;20276;-70
2023/06/25 11:09:39;;;;;;;5.38;4.88;;;;;;;;;;5078760;28;20290;-72
2023/06/25 11:12:06;;;;;;;6.85;5.63;;;;;;;;;;5071424;28;20282;-71
2023/06/25 11:14:33;;;;;;;8.57;5.07;;;;;;;;;;5068024;28;20622;-71
2023/06/25 11:16:58;;;;;;;6.00;5.40;;;;;;;;;;5078874;28;20674;-71
2023/06/25 11:19:25;;;;;;;5.78;4.63;;;;;;;;;;5074157;28;20195;-71
2023/06/25 11:21:50;;;;;;;6.70;4.95;;;;;;;;;;5076895;28;20184;-71
2023/06/25 11:24:16;;;;;;;6.20;5.10;;;;;;;;;;5078788;28;20730;-70
2023/06/25 11:26:43;;;;;;;5.78;5.28;;;;;;;;;;5078857;28;20731;-70
2023/06/25 11:29:09;;;;;;;6.50;5.80;;;;;;;;;;5079286;28;20191;-70
2023/06/25 11:31:48;;;;;;;5.18;4.72;;;;;;;;;;5080096;28;20195;-70
2023/06/25 11:34:23;;;;;;;7.10;5.53;;;;;;;;;;5078822;28;20207;-69
2023/06/25 11:36:49;;;;;;;6.28;5.57;;;;;;;;;;5070173;28;20196;-72
2023/06/25 11:39:15;;;;;;;6.30;5.47;;;;;;;;;;5077339;28;20687;-69
2023/06/25 11:41:41;;;;;;;6.15;5.55;;;;;;;;;;5081916;28;20200;-71
2023/06/25 11:44:19;;;;;;;11.45;5.80;;;;;;;;;;5080913;28;20190;-71
2023/06/25 11:46:51;;;;;;;11.05;5.88;;;;;;;;;;5086418;28;20176;-70
2023/06/25 11:49:18;;;;;;;6.55;5.35;;;;;;;;;;5082194;28;20632;-69
2023/06/25 11:51:51;;;;;;;6.82;5.80;;;;;;;;;;5086226;28;20270;-70
2023/06/25 11:54:18;;;;;;;6.30;5.53;;;;;;;;;;5082308;28;20664;-72
2023/06/25 11:56:43;;;;;;;8.15;5.40;;;;;;;;;;5078406;28;20189;-71
2023/06/25 11:59:09;;;;;;;6.75;5.50;;;;;;;;;;5081122;28;20188;-70
2023/06/25 12:01:34;;;;;;;6.55;5.88;;;;;;;;;;5073444;28;20684;-72
2023/06/25 12:03:59;;;;;;;6.10;5.43;;;;;;;;;;5083713;28;20197;-75
2023/06/25 12:06:25;;;;;;;6.30;5.50;;;;;;;;;;5089373;28;20684;-69
2023/06/25 12:08:51;;;;;;;6.30;5.47;;;;;;;;;;5079107;28;20648;-71
2023/06/25 12:11:17;;;;;;;6.32;5.47;;;;;;;;;;5085920;28;20184;-71
2023/06/25 12:13:43;;;;;;;6.03;5.40;;;;;;;;;;5073959;28;20319;-71
2023/06/25 12:16:08;;;;;;;9.15;6.28;;;;;;;;;;5074450;28;20292;-72
2023/06/25 12:18:34;;;;;;;7.90;6.30;;;;;;;;;;5088318;28;20191;-71
2023/06/25 12:20:59;;;;;;;10.60;6.18;;;;;;;;;;5082079;28;20643;-71
2023/06/25 12:23:25;;;;;;;6.90;6.20;;;;;;;;;;5078358;28;20175;-70
2023/06/25 12:25:50;;;;;;;6.60;5.63;;;;;;;;;;5082629;28;20191;-71
2023/06/25 12:28:15;;;;;;;7.43;6.05;;;;;;;;;;5082308;28;20319;-71
2023/06/25 12:30:41;;;;;;;7.93;7.13;;;;;;;;;;5084327;28;20191;-70
2023/06/25 12:33:06;;;;;;;9.20;7.20;;;;;;;;;;5082772;28;20370;-71
2023/06/25 12:35:31;;;;;;;9.68;7.13;;;;;;;;;;5088068;28;20280;-71
2023/06/25 12:37:57;;;;;;;7.57;6.88;;;;;;;;;;5090157;28;20197;-71
2023/06/25 12:40:22;;;;;;;13.27;6.95;;;;;;;;;;5070860;28;20238;-70
2023/06/25 12:42:48;;;;;;;9.60;6.47;;;;;;;;;;5082574;28;20256;-67
2023/06/25 12:45:13;;;;;;;6.90;6.20;;;;;;;;;;5069179;28;20271;-72
2023/06/25 12:47:40;;;;;;;8.05;5.95;;;;;;;;;;5062191;28;20648;-72
2023/06/25 12:50:06;;;;;;;12.82;7.15;;;;;;;;;;5069347;28;20188;-72
2023/06/25 12:52:31;;;;;;;7.95;6.53;;;;;;;;;;5079306;28;20208;-73
2023/06/25 12:54:57;;;;;;;8.15;7.10;;;;;;;;;;5088387;28;20696;-70
2023/06/25 12:57:24;;;;;;;9.70;7.15;;;;;;;;;;5084588;28;20217;-71
2023/06/25 12:59:49;;;;;;;10.15;6.97;;;;;;;;;;5088442;28;20183;-73
2023/06/25 13:02:15;;;;;;;7.78;5.93;;;;;;;;;;5083461;28;20218;-71
2023/06/25 13:04:40;;;;;;;8.05;6.05;;;;;;;;;;5078453;28;20195;-72
2023/06/25 13:07:05;;;;;;;6.88;6.18;;;;;;;;;;5086243;28;20605;-72
2023/06/25 13:09:32;;;;;;;8.35;6.25;;;;;;;;;;5084238;28;20188;-69
2023/06/25 13:11:58;;;;;;;9.18;6.25;;;;;;;;;;5084017;28;20240;-72
2023/06/25 13:14:23;;;;;;;8.52;6.43;;;;;;;;;;5090656;28;20250;-71
2023/06/25 13:16:49;;;;;;;7.60;6.90;;;;;;;;;;5061828;28;20250;-71
2023/06/25 13:19:14;;;;;;;8.13;6.88;;;;;;;;;;5083391;28;20181;-71
2023/06/25 13:21:40;;;;;;;7.25;6.55;;;;;;;;;;5080901;28;20187;-71
2023/06/25 13:24:06;;;;;;;7.25;6.05;;;;;;;;;;5080650;28;20298;-71
2023/06/25 13:26:31;;;;;;;7.32;5.68;;;;;;;;;;5081187;28;20187;-69
2023/06/25 13:28:57;;;;;;;6.72;6.13;;;;;;;;;;5068786;28;20242;-69
2023/06/25 13:31:22;;;;;;;5.85;5.32;;;;;;;;;;5071507;28;20177;-71
2023/06/25 13:33:47;;;;;;;7.07;5.85;;;;;;;;;;5079513;28;20517;-69
2023/06/25 13:36:13;;;;;;;7.70;6.50;;;;;;;;;;5089446;28;20188;-70
2023/06/25 13:38:40;;;;;;;6.95;6.25;;;;;;;;;;5087261;28;20387;-69
2023/06/25 13:41:05;;;;;;;9.25;6.45;;;;;;;;;;5077176;28;20220;-70
2023/06/25 13:43:34;;;;;;;5.63;5.13;;;;;;;;;;5082552;28;20279;-71
2023/06/25 13:46:00;;;;;;;7.32;5.70;;;;;;;;;;5085503;28;20253;-70
2023/06/25 13:48:25;;;;;;;6.90;6.13;;;;;;;;;;5078410;28;20570;-67
2023/06/25 13:50:51;;;;;;;10.40;6.55;;;;;;;;;;5076308;28;20241;-71
2023/06/25 13:53:16;;;;;;;7.45;6.20;;;;;;;;;;5084259;28;20667;-70
2023/06/25 13:55:42;;;;;;;6.78;5.97;;;;;;;;;;5068653;28;20326;-70
2023/06/25 13:58:07;;;;;;;6.88;6.18;;;;;;;;;;5081810;28;20182;-68
2023/06/25 14:00:33;;;;;;;7.32;6.03;;;;;;;;;;5072305;28;20596;-71
2023/06/25 14:03:01;;;;;;;6.60;5.45;;;;;;;;;;5079040;28;20176;-70
2023/06/25 14:05:26;;;;;;;6.68;5.97;;;;;;;;;;5071016;28;20176;-70
2023/06/25 14:07:52;;;;;;;7.32;5.53;;;;;;;;;;5077953;28;20662;-70
2023/06/25 14:10:17;;;;;;;6.47;5.80;;;;;;;;;;5086625;28;20336;-69
2023/06/25 14:12:42;;;;;;;5.85;5.35;;;;;;;;;;5076171;28;20619;-72
2023/06/25 14:15:08;;;;;;;5.82;5.32;;;;;;;;;;5087231;28;20210;-69
2023/06/25 14:17:33;;;;;;;5.82;5.07;;;;;;;;;;5073078;28;20249;-70
2023/06/25 14:20:00;;;;;;;6.10;5.60;;;;;;;;;;5086456;28;20205;-69